createdAt,value
2023-02-02T00:03:47.589Z,3.84
2023-02-02T00:08:44.092Z,3.79
2023-02-02T00:13:40.505Z,3.80
2023-02-02T00:18:36.820Z,3.75
2023-02-02T00:23:33.287Z,3.62
2023-02-02T00:28:29.623Z,3.67
2023-02-02T00:33:25.968Z,3.57
2023-02-02T00:38:22.487Z,3.56
2023-02-02T00:43:18.890Z,3.48
2023-02-02T00:48:15.518Z,3.45
2023-02-02T00:53:11.847Z,3.41
2023-02-02T00:58:08.219Z,3.40
2023-02-02T01:03:06.969Z,3.30
2023-02-02T01:08:03.800Z,3.27
2023-02-02T01:13:00.251Z,3.23
2023-02-02T01:17:57.403Z,3.23
2023-02-02T01:22:53.805Z,3.24
2023-02-02T01:27:50.150Z,3.25
2023-02-02T01:32:46.535Z,3.20
2023-02-02T01:37:42.869Z,3.10
2023-02-02T01:42:39.177Z,3.03
2023-02-02T01:47:47.615Z,3.01
2023-02-02T01:52:48.734Z,2.97
2023-02-02T01:57:51.791Z,2.89
2023-02-02T02:02:49.247Z,2.83
2023-02-02T02:07:49.116Z,2.82
2023-02-02T02:12:48.146Z,2.83
2023-02-02T02:18:21.491Z,2.91
2023-02-02T02:24:09.523Z,2.97
2023-02-02T02:29:27.383Z,2.97
2023-02-02T02:34:47.942Z,2.99
2023-02-02T02:40:16.591Z,3.09
2023-02-02T02:45:14.128Z,3.23
2023-02-02T02:50:11.593Z,3.27
2023-02-02T02:55:10.982Z,3.34
2023-02-02T03:00:48.113Z,3.43
2023-02-02T03:05:47.495Z,3.48
2023-02-02T03:10:45.954Z,3.49
2023-02-02T03:15:44.322Z,3.51
2023-02-02T03:20:43.553Z,3.54
2023-02-02T03:25:40.168Z,3.55
2023-02-02T03:30:38.199Z,3.58
2023-02-02T03:35:34.653Z,3.59
2023-02-02T03:40:31.060Z,3.58
2023-02-02T03:45:28.499Z,3.63
2023-02-02T03:50:25.505Z,3.62
2023-02-02T03:55:22.245Z,3.63
2023-02-02T04:00:19.165Z,3.67
2023-02-02T04:05:15.726Z,3.67
2023-02-02T04:10:12.181Z,3.74
2023-02-02T04:15:09.157Z,3.78
2023-02-02T04:20:06.721Z,3.81
2023-02-02T04:25:03.721Z,3.82
2023-02-02T04:30:00.182Z,3.86
2023-02-02T04:34:56.589Z,3.88
2023-02-02T04:39:55.269Z,3.86
2023-02-02T04:44:51.629Z,3.95
2023-02-02T04:49:47.942Z,4.03
2023-02-02T04:54:44.331Z,4.14
2023-02-02T04:59:42.495Z,4.09
2023-02-02T05:04:39.103Z,4.10
2023-02-02T05:09:35.488Z,4.19
2023-02-02T05:14:31.867Z,4.17
2023-02-02T05:19:28.215Z,4.11
2023-02-02T05:24:24.649Z,4.08
2023-02-02T05:29:20.992Z,4.04
2023-02-02T05:34:17.418Z,3.99
2023-02-02T05:39:13.781Z,3.92
2023-02-02T05:44:13.471Z,3.86
2023-02-02T05:49:13.838Z,3.80
2023-02-02T05:54:10.370Z,3.73
2023-02-02T05:59:07.503Z,3.72
2023-02-02T06:04:04.008Z,3.70
2023-02-02T06:09:00.367Z,3.60
2023-02-02T06:13:56.953Z,3.57
2023-02-02T06:18:53.958Z,3.54
2023-02-02T06:23:51.458Z,3.45
2023-02-02T06:28:49.705Z,3.37
2023-02-02T06:33:47.345Z,3.28
2023-02-02T06:38:44.230Z,3.23
2023-02-02T06:43:40.560Z,3.18
2023-02-02T06:48:36.989Z,3.13
2023-02-02T06:53:34.363Z,3.09
2023-02-02T06:58:31.663Z,3.05
2023-02-02T07:03:27.998Z,2.98
2023-02-02T07:08:24.379Z,2.92
2023-02-02T07:13:20.780Z,2.89
2023-02-02T07:18:17.353Z,2.83
2023-02-02T07:23:13.718Z,2.75
2023-02-02T07:28:10.021Z,2.68
2023-02-02T07:33:06.336Z,2.67
2023-02-02T07:38:03.054Z,2.65
2023-02-02T07:43:00.995Z,2.65
2023-02-02T07:47:58.452Z,2.66
2023-02-02T07:52:55.162Z,2.68
2023-02-02T07:57:54.307Z,2.72
2023-02-02T08:02:50.954Z,2.71
2023-02-02T08:07:48.257Z,2.72
2023-02-02T08:12:44.723Z,2.75
2023-02-02T08:17:45.542Z,2.74
2023-02-02T08:22:42.109Z,2.79
2023-02-02T08:27:38.468Z,2.76
2023-02-02T08:32:34.798Z,2.77
2023-02-02T08:37:31.174Z,2.76
2023-02-02T08:42:27.525Z,2.77
2023-02-02T08:47:23.947Z,2.81
2023-02-02T08:52:20.579Z,2.90
2023-02-02T08:57:17.222Z,2.99
2023-02-02T09:02:17.906Z,2.98
2023-02-02T09:07:14.262Z,2.99
2023-02-02T09:12:10.818Z,3.07
2023-02-02T09:17:07.134Z,3.40
2023-02-02T09:22:03.701Z,3.17
2023-02-02T09:27:00.118Z,3.13
2023-02-02T09:31:56.699Z,3.09
2023-02-02T09:36:54.259Z,3.16
2023-02-02T09:42:18.304Z,3.22
2023-02-02T09:47:32.762Z,3.24
2023-02-02T09:52:36.522Z,3.33
2023-02-02T09:57:49.896Z,3.42
2023-02-02T10:02:50.051Z,3.42
2023-02-02T10:07:51.467Z,3.50
2023-02-02T10:12:51.957Z,3.44
2023-02-02T10:17:57.441Z,3.48
2023-02-02T10:22:57.709Z,3.49
2023-02-02T10:28:07.063Z,3.52
2023-02-02T10:33:16.534Z,3.50
2023-02-02T10:38:37.915Z,3.43
2023-02-02T10:43:57.343Z,3.50
2023-02-02T10:49:13.138Z,3.61
2023-02-02T10:54:28.969Z,3.63
2023-02-02T10:59:32.267Z,3.59
2023-02-02T11:04:48.163Z,3.68
2023-02-02T11:09:44.479Z,3.76
2023-02-02T11:14:47.084Z,3.79
2023-02-02T11:19:43.428Z,3.87
2023-02-02T11:24:46.302Z,3.95
2023-02-02T11:29:47.992Z,4.06
2023-02-02T11:34:44.345Z,4.03
2023-02-02T11:39:42.149Z,4.11
2023-02-02T11:44:40.271Z,3.98
2023-02-02T11:49:43.589Z,3.93
2023-02-02T11:54:40.949Z,3.88
2023-02-02T11:59:39.320Z,3.90
2023-02-02T12:04:35.926Z,3.95
2023-02-02T12:09:32.383Z,4.15
2023-02-02T12:14:55.024Z,4.19
2023-02-02T12:20:31.427Z,4.05
2023-02-02T12:25:39.990Z,4.06
2023-02-02T12:30:52.836Z,4.06
2023-02-02T12:36:23.607Z,4.10
2023-02-02T12:41:45.582Z,4.06
2023-02-02T12:46:52.650Z,4.10
2023-02-02T12:51:59.191Z,4.11
2023-02-02T12:57:04.772Z,4.19
2023-02-02T13:02:08.663Z,4.20
2023-02-02T13:07:25.082Z,4.10
2023-02-02T13:12:24.713Z,4.07
2023-02-02T13:17:36.258Z,4.03
2023-02-02T13:22:39.053Z,3.99
2023-02-02T13:27:38.421Z,3.91
2023-02-02T13:32:40.147Z,3.95
2023-02-02T13:37:39.634Z,3.86
2023-02-02T13:42:48.626Z,3.85
2023-02-02T13:47:55.781Z,3.86
2023-02-02T13:53:02.811Z,3.79
2023-02-02T13:58:22.456Z,3.81
2023-02-02T14:03:40.549Z,3.94
2023-02-02T14:08:42.823Z,4.03
2023-02-02T14:14:04.021Z,3.95
2023-02-02T14:19:02.486Z,3.89
2023-02-02T14:24:22.870Z,3.78
2023-02-02T14:29:39.669Z,3.77
2023-02-02T14:34:40.902Z,3.85
2023-02-02T14:39:48.927Z,3.98
2023-02-02T14:45:07.852Z,3.89
2023-02-02T14:50:04.484Z,3.92
2023-02-02T14:55:01.079Z,3.84
2023-02-02T15:00:01.098Z,3.90
2023-02-02T15:05:28.907Z,3.88
2023-02-02T15:10:56.732Z,3.88
2023-02-02T15:16:07.721Z,3.84
2023-02-02T15:21:07.622Z,3.79
2023-02-02T15:26:13.128Z,3.73
2023-02-02T15:31:22.770Z,3.78
2023-02-02T15:36:26.913Z,3.85
2023-02-02T15:41:32.685Z,3.81
2023-02-02T15:46:33.350Z,3.82
2023-02-02T15:51:30.219Z,3.88
2023-02-02T15:56:29.862Z,3.79
2023-02-02T16:01:30.244Z,3.92
2023-02-02T16:06:28.351Z,3.90
2023-02-02T16:11:24.820Z,3.83
2023-02-02T16:16:27.940Z,3.84
2023-02-02T16:21:26.804Z,3.89
2023-02-02T16:26:27.881Z,3.96
2023-02-02T16:31:25.160Z,3.90
2023-02-02T16:36:26.003Z,3.79
2023-02-02T16:41:32.900Z,3.85
2023-02-02T16:46:48.755Z,3.83
2023-02-02T16:51:48.445Z,3.91
2023-02-02T16:56:48.578Z,3.79
2023-02-02T17:01:52.177Z,3.83
2023-02-02T17:06:52.902Z,3.75
2023-02-02T17:12:03.542Z,3.74
2023-02-02T17:17:01.765Z,3.68
2023-02-02T17:22:01.382Z,3.65
2023-02-02T17:26:58.060Z,3.64
2023-02-02T17:31:54.578Z,3.56
2023-02-02T17:36:51.129Z,3.41
2023-02-02T17:41:48.487Z,3.56
2023-02-02T17:46:45.377Z,3.51
2023-02-02T17:51:43.306Z,3.53
2023-02-02T17:56:40.666Z,3.39
2023-02-02T18:01:41.370Z,3.49
2023-02-02T18:06:38.266Z,3.42
2023-02-02T18:11:34.649Z,3.38
2023-02-02T18:16:31.132Z,3.36
2023-02-02T18:21:27.494Z,3.48
2023-02-02T18:26:23.835Z,3.50
2023-02-02T18:31:21.471Z,3.47
2023-02-02T18:36:20.636Z,3.53
2023-02-02T18:41:18.206Z,3.52
2023-02-02T18:46:16.228Z,3.62
2023-02-02T18:51:16.014Z,3.70
2023-02-02T18:56:13.964Z,3.79
2023-02-02T19:01:16.515Z,3.92
2023-02-02T19:06:31.316Z,3.86
2023-02-02T19:11:34.859Z,3.90
2023-02-02T19:16:33.805Z,3.92
2023-02-02T19:21:30.718Z,3.99
2023-02-02T19:26:28.001Z,4.13
2023-02-02T19:31:24.540Z,4.32
2023-02-02T19:36:27.441Z,5.05
2023-02-02T19:41:25.764Z,5.31
2023-02-02T19:46:26.133Z,5.68
2023-02-02T19:51:34.682Z,5.76
2023-02-02T19:56:37.953Z,5.85
2023-02-02T20:01:35.284Z,5.87
2023-02-02T20:06:32.165Z,5.88
2023-02-02T20:11:35.518Z,5.93
2023-02-02T20:16:43.115Z,5.96
2023-02-02T20:21:43.912Z,6.02
2023-02-02T20:26:40.250Z,6.02
2023-02-02T20:31:38.263Z,6.05
2023-02-02T20:36:40.905Z,6.07
2023-02-02T20:41:37.216Z,6.09
2023-02-02T20:46:33.510Z,6.11
2023-02-02T20:51:29.817Z,6.13
2023-02-02T20:56:26.299Z,6.13
2023-02-02T21:01:23.401Z,6.16
2023-02-02T21:06:20.044Z,6.17
2023-02-02T21:11:16.317Z,6.19
2023-02-02T21:16:12.595Z,6.19
2023-02-02T21:21:08.966Z,6.21
2023-02-02T21:26:05.263Z,6.21
2023-02-02T21:31:01.611Z,6.22
2023-02-02T21:36:20.437Z,6.26
2023-02-02T21:41:16.734Z,6.25
2023-02-02T21:46:29.419Z,6.26
2023-02-02T21:51:32.877Z,6.30
2023-02-02T21:56:39.093Z,6.32
2023-02-02T22:01:39.411Z,6.32
2023-02-02T22:06:36.606Z,6.32
2023-02-02T22:11:45.483Z,6.34
2023-02-02T22:16:48.599Z,6.36
2023-02-02T22:21:44.914Z,6.36
2023-02-02T22:26:41.754Z,6.37
2023-02-02T22:31:38.172Z,6.41
2023-02-02T22:36:34.628Z,6.42
2023-02-02T22:41:31.008Z,6.45
2023-02-02T22:46:27.465Z,6.45
2023-02-02T22:51:23.805Z,6.46
2023-02-02T22:56:20.114Z,6.49
2023-02-02T23:01:17.070Z,6.52
2023-02-02T23:06:13.374Z,6.54
2023-02-02T23:11:09.677Z,6.59
2023-02-02T23:16:06.984Z,6.61
2023-02-02T23:21:03.509Z,6.62
2023-02-02T23:25:59.872Z,6.66
2023-02-02T23:30:59.091Z,6.68
2023-02-02T23:35:55.505Z,6.71
2023-02-02T23:40:51.817Z,6.73
2023-02-02T23:45:49.087Z,6.71
2023-02-02T23:50:46.826Z,6.74
2023-02-02T23:55:43.855Z,6.76
